Time;durP1;ratioP1;P1;durP2;ratioP2;P2;SDS_P1;SDS_P2;PMS_P1;PMS_P2;Temp;Humidity;BMP_temperature;BMP_pressure;BME280_temperature;BME280_humidity;BME280_pressure;Samples;Min_cycle;Max_cycle;Signal;HPM_P1;HPM_P2
2020/12/20 00:00:18;;;;;;;20.83;11.07;;;;;;;1.31;100.00;96772.66;5000616;28;20240;-71
2020/12/20 00:02:50;;;;;;;19.90;11.10;;;;;;;1.27;100.00;96773.81;5000195;28;20241;-71
2020/12/20 00:05:16;;;;;;;20.83;10.57;;;;;;;1.22;100.00;96773.28;5000648;28;20211;-71
2020/12/20 00:07:42;;;;;;;20.50;11.03;;;;;;;0.96;100.00;96775.22;5000497;28;20217;-71
2020/12/20 00:10:08;;;;;;;18.60;10.33;;;;;;;1.01;100.00;96784.34;5000634;28;20543;-71
2020/12/20 00:12:34;;;;;;;19.40;10.97;;;;;;;1.07;100.00;96785.66;5000522;28;20217;-71
2020/12/20 00:15:01;;;;;;;18.40;10.70;;;;;;;1.16;100.00;96780.69;4999850;28;20297;-71
2020/12/20 00:17:27;;;;;;;21.03;11.13;;;;;;;1.20;100.00;96775.16;5000100;28;20212;-71
2020/12/20 00:19:56;;;;;;;18.00;10.37;;;;;;;1.19;100.00;96766.66;5000823;28;20244;-71
2020/12/20 00:22:22;;;;;;;19.90;10.30;;;;;;;1.22;100.00;96765.50;4999869;28;20672;-71
2020/12/20 00:24:48;;;;;;;18.27;10.50;;;;;;;1.23;100.00;96772.38;5000332;28;20231;-71
2020/12/20 00:27:14;;;;;;;18.93;10.70;;;;;;;1.27;100.00;96773.81;4999259;28;20777;-71
2020/12/20 00:29:41;;;;;;;20.77;10.90;;;;;;;1.21;100.00;96763.84;5000336;28;20289;-71
2020/12/20 00:32:11;;;;;;;17.47;9.80;;;;;;;1.18;100.00;96765.00;4999662;28;20222;-71
2020/12/20 00:34:37;;;;;;;19.33;10.57;;;;;;;1.19;100.00;96758.88;4999864;28;20202;-71
2020/12/20 00:37:04;;;;;;;21.40;12.00;;;;;;;1.18;100.00;96752.84;4999367;28;20213;-71
2020/12/20 00:39:30;;;;;;;19.70;10.60;;;;;;;1.14;100.00;96755.78;5000265;28;20219;-71
2020/12/20 00:41:57;;;;;;;20.23;11.10;;;;;;;1.10;100.00;96754.34;4999596;28;20803;-71
2020/12/20 00:44:25;;;;;;;21.70;11.30;;;;;;;1.14;100.00;96750.59;4999711;28;20268;-71
2020/12/20 00:46:52;;;;;;;21.00;11.20;;;;;;;1.10;100.00;96749.97;4999934;28;20202;-71
2020/12/20 00:49:19;;;;;;;20.70;11.00;;;;;;;1.19;100.00;96748.50;4999487;28;20203;-70
2020/12/20 00:51:44;;;;;;;21.57;11.27;;;;;;;1.10;100.00;96738.78;4999608;28;20264;-71
2020/12/20 00:54:11;;;;;;;20.30;10.80;;;;;;;1.17;100.00;96739.97;4999658;28;20231;-71
2020/12/20 00:56:37;;;;;;;21.33;10.70;;;;;;;1.07;100.00;96737.22;4999116;28;20212;-71
2020/12/20 00:59:04;;;;;;;18.40;10.73;;;;;;;1.07;100.00;96738.97;4999397;28;20224;-71
2020/12/20 01:01:30;;;;;;;19.17;10.47;;;;;;;1.09;100.00;96752.66;4999670;28;20222;-71
2020/12/20 01:03:56;;;;;;;18.50;10.67;;;;;;;1.09;100.00;96752.66;4998736;28;20229;-71
2020/12/20 01:06:24;;;;;;;18.23;10.40;;;;;;;0.98;100.00;96750.84;4998275;28;20199;-71
2020/12/20 01:08:51;;;;;;;19.87;10.77;;;;;;;1.09;100.00;96737.09;5000216;28;20563;-70
2020/12/20 01:11:19;;;;;;;20.73;11.33;;;;;;;0.89;100.00;96741.09;4998782;28;20871;-71
2020/12/20 01:13:45;;;;;;;21.47;10.87;;;;;;;0.76;100.00;96740.28;4998773;28;20205;-71
2020/12/20 01:16:15;;;;;;;21.80;11.63;;;;;;;0.72;100.00;96733.63;4998984;28;20209;-71
2020/12/20 01:18:41;;;;;;;20.93;11.37;;;;;;;0.89;100.00;96729.88;4999701;28;21157;-71
2020/12/20 01:21:07;;;;;;;21.57;11.53;;;;;;;0.96;100.00;96729.34;4998820;28;20224;-71
2020/12/20 01:23:34;;;;;;;19.67;10.83;;;;;;;0.91;100.00;96725.41;4999012;28;20341;-71
2020/12/20 01:26:00;;;;;;;23.03;12.33;;;;;;;1.00;100.00;96722.19;4998502;28;20207;-71
2020/12/20 01:28:26;;;;;;;21.60;11.20;;;;;;;1.07;100.00;96729.44;4999020;28;20202;-71
2020/12/20 01:30:52;;;;;;;20.93;11.33;;;;;;;1.10;100.00;96733.56;4998845;28;20230;-71
2020/12/20 01:33:18;;;;;;;21.57;11.80;;;;;;;1.19;100.00;96738.13;4999453;28;20321;-71
2020/12/20 01:35:44;;;;;;;21.03;11.27;;;;;;;1.24;100.00;96737.66;4997924;28;20214;-71
2020/12/20 01:38:10;;;;;;;20.30;11.03;;;;;;;1.24;100.00;96747.22;4999182;28;20300;-71
2020/12/20 01:40:37;;;;;;;20.50;10.93;;;;;;;1.09;100.00;96747.47;4998880;28;20652;-70
2020/12/20 01:43:03;;;;;;;21.20;11.13;;;;;;;1.21;100.00;96753.47;4998254;28;20233;-71
2020/12/20 01:45:29;;;;;;;19.90;10.83;;;;;;;1.16;100.00;96752.13;4997591;28;20311;-71
2020/12/20 01:47:55;;;;;;;19.63;10.50;;;;;;;1.12;100.00;96736.88;4999136;28;20665;-71
2020/12/20 01:50:22;;;;;;;21.53;11.50;;;;;;;1.24;100.00;96739.44;4998186;28;20233;-71
2020/12/20 01:52:48;;;;;;;18.73;10.10;;;;;;;1.24;100.00;96744.63;4998387;28;20213;-71
2020/12/20 01:55:17;;;;;;;18.27;10.33;;;;;;;1.26;100.00;96745.34;4997777;28;20209;-71
2020/12/20 01:57:44;;;;;;;19.03;10.03;;;;;;;1.20;100.00;96756.16;4998888;28;20689;-70
2020/12/20 02:00:10;;;;;;;18.83;10.63;;;;;;;1.18;100.00;96767.59;4997550;28;20202;-71
2020/12/20 02:02:36;;;;;;;17.80;10.17;;;;;;;1.28;100.00;96759.88;4998731;28;20293;-71
2020/12/20 02:05:03;;;;;;;20.13;11.13;;;;;;;1.24;100.00;96755.84;4997109;28;20329;-71
2020/12/20 02:07:30;;;;;;;18.57;10.37;;;;;;;1.40;100.00;96747.78;4997946;28;20206;-71
2020/12/20 02:09:56;;;;;;;21.33;10.67;;;;;;;1.43;100.00;96738.00;4998314;28;20673;-71
2020/12/20 02:12:26;;;;;;;20.73;11.37;;;;;;;1.37;100.00;96730.66;4998475;28;20583;-71
2020/12/20 02:14:52;;;;;;;20.17;10.63;;;;;;;1.25;100.00;96728.94;4998270;28;20230;-71
2020/12/20 02:17:19;;;;;;;19.30;10.87;;;;;;;1.30;100.00;96720.84;4997262;28;20206;-71
2020/12/20 02:19:44;;;;;;;17.47;10.17;;;;;;;1.36;100.00;96726.44;4998994;28;20221;-71
2020/12/20 02:22:11;;;;;;;17.40;9.77;;;;;;;1.45;100.00;96730.09;4998322;28;20321;-71
2020/12/20 02:24:37;;;;;;;18.43;10.57;;;;;;;1.50;100.00;96730.59;4997549;28;20244;-71
2020/12/20 02:27:03;;;;;;;18.33;9.90;;;;;;;1.52;100.00;96732.16;4997039;28;20412;-70
2020/12/20 02:29:29;;;;;;;19.60;10.53;;;;;;;1.53;100.00;96733.00;4998352;28;20227;-71
2020/12/20 02:31:58;;;;;;;20.03;10.53;;;;;;;1.53;100.00;96746.81;4997783;28;20226;-71
2020/12/20 02:34:24;;;;;;;19.03;10.30;;;;;;;1.46;100.00;96740.38;4998117;28;20265;-71
2020/12/20 02:36:50;;;;;;;17.93;10.40;;;;;;;1.46;100.00;96731.78;4997145;28;20207;-71
2020/12/20 02:39:17;;;;;;;16.73;9.73;;;;;;;1.42;100.00;96720.78;4997658;28;20212;-71
2020/12/20 02:41:43;;;;;;;16.70;9.97;;;;;;;1.47;100.00;96725.66;4997251;28;20806;-71
2020/12/20 02:44:09;;;;;;;18.13;10.33;;;;;;;1.46;100.00;96717.00;4998169;28;20226;-70
2020/12/20 02:46:35;;;;;;;17.57;9.53;;;;;;;1.40;100.00;96716.63;4997028;28;20210;-71
2020/12/20 02:49:02;;;;;;;18.20;10.37;;;;;;;1.47;100.00;96725.66;4997797;28;20214;-71
2020/12/20 02:51:28;;;;;;;16.23;9.50;;;;;;;1.41;100.00;96724.31;4997435;28;20218;-71
2020/12/20 02:53:54;;;;;;;18.90;10.27;;;;;;;1.35;100.00;96724.75;4997881;28;20221;-71
2020/12/20 02:56:22;;;;;;;20.50;10.53;;;;;;;1.39;100.00;96730.56;4996300;28;20206;-71
2020/12/20 02:58:48;;;;;;;16.73;9.57;;;;;;;1.43;100.00;96727.63;4997630;28;21286;-71
2020/12/20 03:01:14;;;;;;;18.47;9.83;;;;;;;1.44;100.00;96720.66;4997297;28;20732;-71
2020/12/20 03:03:41;;;;;;;18.30;10.07;;;;;;;1.48;100.00;96720.34;4997331;28;20237;-71
2020/12/20 03:06:07;;;;;;;18.73;10.47;;;;;;;1.35;100.00;96713.53;4996465;28;20673;-71
2020/12/20 03:08:33;;;;;;;19.53;10.03;;;;;;;1.26;100.00;96715.03;4997202;28;20230;-71
2020/12/20 03:10:59;;;;;;;17.43;9.70;;;;;;;1.36;100.00;96720.38;4997775;28;21054;-71
2020/12/20 03:13:26;;;;;;;18.90;10.47;;;;;;;1.44;100.00;96721.50;4996986;28;20203;-71
2020/12/20 03:15:52;;;;;;;18.83;10.67;;;;;;;1.35;100.00;96723.91;5001634;28;20210;-71
2020/12/20 03:18:18;;;;;;;18.27;9.93;;;;;;;1.35;100.00;96719.56;5003819;28;20206;-71
2020/12/20 03:20:44;;;;;;;17.70;10.33;;;;;;;1.39;100.00;96713.22;5003521;28;20630;-71
2020/12/20 03:23:10;;;;;;;18.70;10.70;;;;;;;1.38;100.00;96705.53;5003970;28;20280;-71
2020/12/20 03:25:36;;;;;;;17.87;9.90;;;;;;;1.11;100.00;96706.66;5003420;28;20206;-71
2020/12/20 03:28:02;;;;;;;18.50;10.27;;;;;;;1.21;100.00;96711.94;5003316;28;20307;-71
2020/12/20 03:30:29;;;;;;;21.43;11.00;;;;;;;1.11;100.00;96706.66;5004088;28;20260;-71
2020/12/20 03:32:55;;;;;;;21.17;10.60;;;;;;;1.20;100.00;96712.88;5004686;28;20204;-71
2020/12/20 03:35:21;;;;;;;18.00;10.40;;;;;;;1.16;100.00;96704.56;5001769;28;20205;-71
2020/12/20 03:37:50;;;;;;;16.93;9.97;;;;;;;1.09;100.00;96695.59;5003535;28;20953;-71
2020/12/20 03:40:16;;;;;;;21.17;10.77;;;;;;;1.06;100.00;96703.56;5004013;28;20229;-71
2020/12/20 03:42:42;;;;;;;19.03;10.23;;;;;;;0.98;100.00;96713.66;5003725;28;20217;-71
2020/12/20 03:45:08;;;;;;;18.73;10.23;;;;;;;0.89;100.00;96715.16;5003066;28;20222;-71
2020/12/20 03:47:35;;;;;;;18.87;10.03;;;;;;;0.90;100.00;96715.97;5003548;28;20214;-71
2020/12/20 03:50:01;;;;;;;20.30;9.97;;;;;;;1.02;100.00;96715.09;5003414;28;20206;-71
2020/12/20 03:52:27;;;;;;;17.67;9.90;;;;;;;1.10;100.00;96713.63;5003150;28;20209;-71
2020/12/20 03:54:53;;;;;;;16.73;9.63;;;;;;;0.98;100.00;96711.06;5003391;28;20234;-71
2020/12/20 03:57:18;;;;;;;18.53;10.17;;;;;;;1.08;100.00;96704.31;5003146;28;20236;-71
2020/12/20 03:59:45;;;;;;;15.90;9.03;;;;;;;0.99;100.00;96704.94;5003104;28;20739;-71
2020/12/20 04:02:11;;;;;;;16.73;9.23;;;;;;;0.91;100.00;96709.84;5003195;28;20241;-71
2020/12/20 04:04:38;;;;;;;16.20;9.57;;;;;;;0.94;100.00;96699.25;5003298;28;20225;-70
2020/12/20 04:07:04;;;;;;;19.33;10.03;;;;;;;1.01;100.00;96700.50;5002515;28;20217;-71
2020/12/20 04:09:29;;;;;;;17.30;9.33;;;;;;;1.03;100.00;96701.19;5003201;28;20205;-71
2020/12/20 04:11:55;;;;;;;17.63;9.40;;;;;;;1.02;100.00;96704.72;5003519;28;20320;-71
2020/12/20 04:14:21;;;;;;;21.33;10.13;;;;;;;1.04;100.00;96695.91;5003346;28;20201;-71
2020/12/20 04:16:47;;;;;;;20.30;11.00;;;;;;;1.01;100.00;96698.72;5002627;28;20280;-71
2020/12/20 04:19:14;;;;;;;17.97;9.57;;;;;;;1.13;100.00;96697.84;5003439;28;20216;-71
2020/12/20 04:21:41;;;;;;;16.83;9.23;;;;;;;1.10;100.00;96697.25;5003860;28;20287;-71
2020/12/20 04:24:07;;;;;;;16.97;9.90;;;;;;;1.17;100.00;96703.66;5002729;28;20276;-71
2020/12/20 04:26:33;;;;;;;17.63;9.77;;;;;;;1.22;100.00;96707.56;5000624;28;20209;-71
2020/12/20 04:28:59;;;;;;;17.43;9.97;;;;;;;1.29;100.00;96701.81;5000144;28;20260;-71
2020/12/20 04:31:25;;;;;;;17.50;9.50;;;;;;;1.29;100.00;96704.41;4999885;28;20225;-71
2020/12/20 04:33:51;;;;;;;16.60;9.80;;;;;;;1.35;100.00;96704.00;5000447;28;20413;-71
2020/12/20 04:36:17;;;;;;;16.13;9.43;;;;;;;1.26;100.00;96704.66;4999603;28;20987;-71
2020/12/20 04:38:44;;;;;;;18.77;10.10;;;;;;;1.22;100.00;96708.41;5000107;28;20229;-71
2020/12/20 04:41:11;;;;;;;19.37;10.30;;;;;;;1.32;100.00;96698.19;4999298;28;20226;-71
2020/12/20 04:43:37;;;;;;;16.20;9.57;;;;;;;1.23;100.00;96694.50;5001098;28;20230;-71
2020/12/20 04:46:04;;;;;;;19.40;10.30;;;;;;;1.24;100.00;96696.13;4999275;28;20213;-71
2020/12/20 04:48:36;;;;;;;19.10;10.57;;;;;;;1.19;100.00;96698.22;4999888;28;20203;-71
2020/12/20 04:51:02;;;;;;;16.40;10.17;;;;;;;1.15;100.00;96700.34;4999260;28;20273;-71
2020/12/20 04:53:30;;;;;;;20.33;10.17;;;;;;;1.04;100.00;96693.31;5000135;28;20573;-71
2020/12/20 04:56:00;;;;;;;16.90;9.63;;;;;;;1.13;100.00;96691.84;4998559;28;20222;-71
2020/12/20 04:58:26;;;;;;;21.10;10.50;;;;;;;1.25;100.00;96684.81;4999821;28;20210;-71
2020/12/20 05:00:53;;;;;;;18.43;10.20;;;;;;;1.25;100.00;96691.78;4999796;28;20222;-71
2020/12/20 05:03:19;;;;;;;18.57;10.10;;;;;;;1.25;100.00;96684.81;4999675;28;20229;-71
2020/12/20 05:05:45;;;;;;;21.50;10.53;;;;;;;1.22;100.00;96687.66;4998605;28;20238;-71
2020/12/20 05:08:13;;;;;;;21.40;11.43;;;;;;;1.18;100.00;96692.34;4999524;28;20216;-71
2020/12/20 05:10:40;;;;;;;22.50;10.80;;;;;;;1.09;100.00;96690.41;4998892;28;21208;-71
2020/12/20 05:13:08;;;;;;;18.60;10.20;;;;;;;0.94;100.00;96681.09;4999727;28;20572;-71
2020/12/20 05:15:34;;;;;;;20.43;11.20;;;;;;;0.98;100.00;96688.56;4998992;28;20218;-71
2020/12/20 05:18:04;;;;;;;19.40;10.83;;;;;;;1.03;100.00;96702.03;4999400;28;21101;-71
2020/12/20 05:20:38;;;;;;;21.97;11.00;;;;;;;1.06;100.00;96703.56;4998618;28;20229;-71
2020/12/20 05:23:05;;;;;;;19.43;10.47;;;;;;;1.09;100.00;96704.19;4999283;28;20232;-71
2020/12/20 05:25:32;;;;;;;22.10;11.33;;;;;;;1.16;100.00;96714.97;4998291;28;20215;-71
2020/12/20 05:28:05;;;;;;;22.23;11.17;;;;;;;1.12;100.00;96724.75;4999228;28;20261;-71
2020/12/20 05:30:32;;;;;;;20.87;11.27;;;;;;;1.08;100.00;96722.47;4998985;28;20414;-71
2020/12/20 05:32:58;;;;;;;18.87;10.47;;;;;;;0.98;100.00;96724.03;4999356;28;20234;-71
2020/12/20 05:35:24;;;;;;;22.83;11.47;;;;;;;1.07;100.00;96710.41;4998159;28;20289;-71
2020/12/20 05:37:50;;;;;;;21.37;11.67;;;;;;;1.02;100.00;96715.09;4998146;28;20254;-71
2020/12/20 05:40:24;;;;;;;19.30;10.13;;;;;;;1.21;100.00;96705.94;4998825;28;20283;-71
2020/12/20 05:42:57;;;;;;;21.33;10.87;;;;;;;1.16;100.00;96702.81;4998852;28;20212;-71
2020/12/20 05:45:25;;;;;;;18.43;10.60;;;;;;;1.11;100.00;96698.88;4997671;28;20226;-71
2020/12/20 05:47:52;;;;;;;20.97;10.90;;;;;;;1.10;100.00;96697.25;4998570;28;20206;-71
2020/12/20 05:50:18;;;;;;;22.13;11.00;;;;;;;1.02;100.00;96696.94;4999053;28;20224;-71
2020/12/20 05:53:03;;;;;;;19.27;10.70;;;;;;;1.03;100.00;96696.00;4998101;28;20748;-71
2020/12/20 05:55:40;;;;;;;21.07;11.17;;;;;;;1.07;100.00;96695.69;4998061;28;20271;-71
2020/12/20 05:58:11;;;;;;;20.67;10.77;;;;;;;1.18;100.00;96697.53;4998346;28;21137;-71
2020/12/20 06:00:39;;;;;;;19.30;10.90;;;;;;;1.16;100.00;96694.19;4999037;28;20287;-71
2020/12/20 06:03:06;;;;;;;19.47;10.70;;;;;;;1.15;100.00;96689.97;4997862;28;20202;-71
2020/12/20 06:05:38;;;;;;;23.43;11.23;;;;;;;1.04;100.00;96692.47;4997728;28;20210;-71
2020/12/20 06:08:07;;;;;;;21.27;10.63;;;;;;;1.16;100.00;96691.59;4998844;28;20209;-71
2020/12/20 06:10:42;;;;;;;23.20;11.17;;;;;;;1.14;100.00;96707.28;4998353;28;20901;-71
2020/12/20 06:13:10;;;;;;;19.50;10.30;;;;;;;1.11;100.00;96704.06;4997742;28;20211;-71
2020/12/20 06:15:38;;;;;;;18.97;10.93;;;;;;;1.20;100.00;96719.84;4997307;28;20214;-71
2020/12/20 06:18:08;;;;;;;21.53;11.37;;;;;;;1.27;100.00;96711.50;4997543;28;21344;-71
2020/12/20 06:20:48;;;;;;;21.53;10.90;;;;;;;1.25;100.00;96700.41;4998355;28;21392;-71
2020/12/20 06:23:18;;;;;;;22.47;11.50;;;;;;;1.20;100.00;96704.25;4997643;28;20248;-71
2020/12/20 06:25:45;;;;;;;21.77;10.77;;;;;;;1.19;100.00;96713.78;4997366;28;20682;-71
2020/12/20 06:28:16;;;;;;;22.33;11.53;;;;;;;1.18;100.00;96715.69;4998149;28;20210;-71
2020/12/20 06:30:42;;;;;;;21.43;11.73;;;;;;;1.18;100.00;96710.50;4998228;28;20257;-71
2020/12/20 06:33:15;;;;;;;23.20;12.43;;;;;;;1.16;100.00;96702.81;4997707;28;20204;-71
2020/12/20 06:35:42;;;;;;;22.30;11.43;;;;;;;1.16;100.00;96697.63;4997242;28;20209;-71
2020/12/20 06:38:12;;;;;;;21.10;11.27;;;;;;;1.11;100.00;96709.25;4997727;28;20208;-71
2020/12/20 06:40:43;;;;;;;22.93;11.17;;;;;;;1.21;100.00;96696.38;4997665;28;20264;-71
2020/12/20 06:43:10;;;;;;;20.37;11.57;;;;;;;1.32;100.00;96696.44;4997208;28;20208;-71
2020/12/20 06:45:40;;;;;;;19.97;10.73;;;;;;;1.27;100.00;96695.94;4996859;28;20462;-71
2020/12/20 06:48:09;;;;;;;21.93;10.80;;;;;;;1.19;100.00;96707.78;4997456;28;20305;-71
2020/12/20 06:50:43;;;;;;;19.63;10.70;;;;;;;1.26;100.00;96709.84;4996845;28;21024;-72
2020/12/20 06:53:10;;;;;;;21.20;10.33;;;;;;;1.30;100.00;96705.28;4996646;28;20213;-72
2020/12/20 06:55:36;;;;;;;19.77;10.50;;;;;;;1.21;100.00;96701.56;4997248;28;20202;-72
2020/12/20 06:58:13;;;;;;;21.40;11.07;;;;;;;1.30;100.00;96711.28;4997274;28;20217;-71
2020/12/20 07:00:41;;;;;;;19.80;10.17;;;;;;;1.37;100.00;96715.06;4997241;28;20230;-72
2020/12/20 07:03:08;;;;;;;19.40;10.00;;;;;;;1.35;100.00;96714.38;4996868;28;20213;-71
2020/12/20 07:05:35;;;;;;;55.13;24.00;;;;;;;1.45;100.00;96715.38;4996449;28;20284;-70
2020/12/20 07:08:13;;;;;;;22.10;11.27;;;;;;;1.37;100.00;96712.47;4997684;28;20253;-71
2020/12/20 07:10:41;;;;;;;20.40;10.77;;;;;;;1.20;100.00;96707.69;4998038;28;20260;-71
2020/12/20 07:13:10;;;;;;;22.77;11.03;;;;;;;1.00;100.00;96706.63;4997224;28;20199;-71
2020/12/20 07:15:50;;;;;;;19.47;10.73;;;;;;;1.10;100.00;96707.63;4996026;28;20711;-71
2020/12/20 07:18:42;;;;;;;20.13;10.53;;;;;;;1.21;100.00;96724.09;4997907;28;20260;-71
2020/12/20 07:21:09;;;;;;;19.40;10.17;;;;;;;1.32;100.00;96732.78;4997320;28;20222;-70
2020/12/20 07:23:39;;;;;;;18.37;9.73;;;;;;;1.15;100.00;96734.09;4997150;28;20230;-71
2020/12/20 07:26:05;;;;;;;18.57;9.87;;;;;;;1.22;100.00;96731.75;4996632;28;20206;-71
2020/12/20 07:28:31;;;;;;;19.53;9.83;;;;;;;1.22;100.00;96728.31;4996803;28;20206;-71
2020/12/20 07:30:57;;;;;;;19.43;9.97;;;;;;;1.40;100.00;96727.00;4997173;28;21012;-71
2020/12/20 07:33:23;;;;;;;20.73;10.77;;;;;;;1.47;100.00;96736.03;4996954;28;21343;-71
2020/12/20 07:35:49;;;;;;;18.60;10.10;;;;;;;1.51;100.00;96748.66;4996676;28;20349;-71
2020/12/20 07:38:15;;;;;;;18.23;9.87;;;;;;;1.59;100.00;96742.94;4996844;28;20212;-71
2020/12/20 07:40:42;;;;;;;18.60;9.67;;;;;;;1.58;100.00;96734.31;4997377;28;20224;-71
2020/12/20 07:43:09;;;;;;;20.30;10.20;;;;;;;1.56;100.00;96746.56;4996700;28;20621;-71
2020/12/20 07:45:35;;;;;;;22.07;11.63;;;;;;;1.54;100.00;96745.88;4995869;28;20598;-71
2020/12/20 07:48:01;;;;;;;21.17;11.43;;;;;;;1.60;100.00;96750.59;4996929;28;20205;-71
2020/12/20 07:50:27;;;;;;;22.10;11.03;;;;;;;1.57;100.00;96756.03;4996779;28;20222;-71
2020/12/20 07:52:53;;;;;;;17.30;9.77;;;;;;;1.53;100.00;96746.00;4997199;28;20202;-71
2020/12/20 07:55:19;;;;;;;20.23;10.80;;;;;;;1.44;100.00;96751.81;4996485;28;20218;-72
2020/12/20 07:57:48;;;;;;;22.67;11.27;;;;;;;1.38;100.00;96754.88;4997284;28;21037;-72
2020/12/20 08:00:15;;;;;;;24.67;12.00;;;;;;;1.33;100.00;96751.75;4996759;28;20202;-71
2020/12/20 08:02:41;;;;;;;20.97;11.10;;;;;;;1.37;100.00;96748.81;4999741;28;21106;-71
2020/12/20 08:05:10;;;;;;;21.10;11.23;;;;;;;1.31;100.00;96748.44;4999885;28;20263;-70
2020/12/20 08:07:36;;;;;;;22.30;11.17;;;;;;;1.46;100.00;96749.94;5000386;28;20214;-71
2020/12/20 08:10:03;;;;;;;21.53;10.90;;;;;;;1.51;100.00;96759.06;5000318;28;20559;-71
2020/12/20 08:12:30;;;;;;;22.70;11.27;;;;;;;1.55;100.00;96765.69;5000592;28;21152;-71
2020/12/20 08:15:05;;;;;;;23.23;11.50;;;;;;;1.48;100.00;96767.06;5000387;28;20221;-71
2020/12/20 08:17:31;;;;;;;21.23;10.83;;;;;;;1.41;100.00;96755.47;5000408;28;20212;-70
2020/12/20 08:20:00;;;;;;;25.20;11.17;;;;;;;1.13;100.00;96746.31;5000714;28;21047;-72
2020/12/20 08:22:29;;;;;;;21.43;11.20;;;;;;;1.21;100.00;96748.28;4999925;28;20202;-71
2020/12/20 08:24:55;;;;;;;21.40;10.67;;;;;;;1.25;100.00;96739.31;5001022;28;20237;-72
2020/12/20 08:27:24;;;;;;;22.77;10.90;;;;;;;1.32;100.00;96740.56;4996472;28;20955;-71
2020/12/20 08:29:52;;;;;;;23.93;11.83;;;;;;;2.40;100.00;96735.06;4999797;28;20210;-71
2020/12/20 08:32:20;;;;;;;20.37;11.07;;;;;;;2.10;100.00;96739.94;4998337;28;20222;-71
2020/12/20 08:34:47;;;;;;;18.03;10.13;;;;;;;1.63;100.00;96740.00;5000716;28;20206;-72
2020/12/20 08:37:14;;;;;;;20.47;11.07;;;;;;;1.56;100.00;96736.19;4999426;28;20280;-72
2020/12/20 08:39:41;;;;;;;23.03;10.80;;;;;;;1.64;100.00;96739.03;5000253;28;20214;-72
2020/12/20 08:42:08;;;;;;;20.17;10.70;;;;;;;1.60;100.00;96739.41;5000026;28;20650;-71
2020/12/20 08:44:35;;;;;;;21.43;11.07;;;;;;;1.57;100.00;96740.44;4999969;28;20233;-72
2020/12/20 08:47:06;;;;;;;18.53;9.87;;;;;;;1.55;100.00;96738.91;4998547;28;20208;-71
2020/12/20 08:49:33;;;;;;;21.90;10.73;;;;;;;1.67;100.00;96738.84;5000227;28;20213;-71
2020/12/20 08:52:09;;;;;;;20.63;10.73;;;;;;;1.69;100.00;96736.94;4999237;28;20705;-72
2020/12/20 08:54:36;;;;;;;24.33;13.37;;;;;;;1.83;100.00;96737.63;4999767;28;20199;-72
2020/12/20 08:57:05;;;;;;;23.13;11.77;;;;;;;1.88;100.00;96740.72;4998814;28;20206;-71
2020/12/20 08:59:34;;;;;;;19.13;10.70;;;;;;;1.77;100.00;96746.78;4999422;28;20197;-72
2020/12/20 09:02:00;;;;;;;16.87;10.10;;;;;;;1.87;100.00;96748.59;4998976;28;20762;-72
2020/12/20 09:04:28;;;;;;;20.83;11.10;;;;;;;2.08;100.00;96757.44;4999306;28;20221;-72
2020/12/20 09:07:04;;;;;;;19.50;10.50;;;;;;;2.02;100.00;96760.47;4998520;28;20206;-72
2020/12/20 09:09:30;;;;;;;18.83;10.77;;;;;;;2.01;100.00;96758.81;4998976;28;20209;-72
2020/12/20 09:12:13;;;;;;;17.33;10.30;;;;;;;1.70;100.00;96762.00;4999348;28;20218;-72
2020/12/20 09:14:40;;;;;;;17.80;10.07;;;;;;;1.88;100.00;96763.25;4999831;28;20206;-72
2020/12/20 09:17:06;;;;;;;20.27;10.70;;;;;;;1.80;100.00;96765.59;4998207;28;20209;-71
2020/12/20 09:19:32;;;;;;;19.70;11.00;;;;;;;1.83;100.00;96770.53;4999164;28;20206;-72
2020/12/20 09:21:58;;;;;;;19.10;10.60;;;;;;;1.95;100.00;96778.28;4999110;28;20237;-72
2020/12/20 09:24:26;;;;;;;19.70;10.67;;;;;;;2.05;100.00;96778.44;4999003;28;20587;-71
2020/12/20 09:26:59;;;;;;;20.80;10.87;;;;;;;1.83;100.00;96780.94;4997965;28;20213;-71
2020/12/20 09:29:25;;;;;;;20.40;11.37;;;;;;;1.73;100.00;96779.13;4998651;28;20665;-72
2020/12/20 09:31:53;;;;;;;21.03;11.50;;;;;;;1.76;100.00;96779.75;4998789;28;20245;-72
2020/12/20 09:34:19;;;;;;;19.70;11.07;;;;;;;1.71;100.00;96774.03;4998255;28;20267;-71
2020/12/20 09:36:45;;;;;;;21.87;11.27;;;;;;;1.85;100.00;96781.66;4998843;28;20213;-72
2020/12/20 09:39:13;;;;;;;20.30;11.43;;;;;;;1.81;100.00;96775.03;4998390;28;20317;-72
2020/12/20 09:41:40;;;;;;;18.63;10.67;;;;;;;2.00;100.00;96783.16;4998301;28;20226;-71
2020/12/20 09:44:06;;;;;;;20.17;11.60;;;;;;;1.99;100.00;96778.91;4998722;28;20229;-72
2020/12/20 09:46:34;;;;;;;22.07;11.97;;;;;;;2.01;100.00;96774.41;4999147;28;20260;-72
2020/12/20 09:49:01;;;;;;;21.67;11.13;;;;;;;2.11;100.00;96777.97;4997890;28;20205;-72
2020/12/20 09:51:27;;;;;;;20.60;11.03;;;;;;;2.18;100.00;96774.81;4998594;28;20232;-72
2020/12/20 09:53:54;;;;;;;23.50;12.57;;;;;;;2.21;100.00;96781.56;4999214;28;20947;-71
2020/12/20 09:56:20;;;;;;;47.70;24.23;;;;;;;2.02;100.00;96784.69;4997672;28;20202;-72
2020/12/20 09:58:48;;;;;;;25.10;12.43;;;;;;;1.94;100.00;96786.19;4998227;28;20276;-72
2020/12/20 10:01:17;;;;;;;23.43;11.73;;;;;;;1.81;100.00;96780.25;4999004;28;20296;-72
2020/12/20 10:03:44;;;;;;;20.93;11.17;;;;;;;1.80;100.00;96775.16;4998330;28;20220;-72
2020/12/20 10:06:10;;;;;;;44.33;16.37;;;;;;;1.84;100.00;96769.63;4997877;28;20208;-72
2020/12/20 10:08:36;;;;;;;22.43;11.60;;;;;;;1.80;100.00;96765.59;4998411;28;20245;-72
2020/12/20 10:11:01;;;;;;;21.67;12.37;;;;;;;1.63;100.00;96765.13;4997959;28;20321;-71
2020/12/20 10:13:27;;;;;;;23.40;11.90;;;;;;;1.69;100.00;96760.31;4997886;28;20244;-72
2020/12/20 10:15:54;;;;;;;23.50;11.90;;;;;;;1.48;100.00;96769.66;4997940;28;20206;-71
2020/12/20 10:18:20;;;;;;;24.27;12.40;;;;;;;1.40;100.00;96759.00;4997823;28;20209;-71
2020/12/20 10:20:46;;;;;;;23.60;12.90;;;;;;;1.51;100.00;96761.66;4997968;28;20300;-72
2020/12/20 10:23:12;;;;;;;26.00;13.50;;;;;;;1.64;100.00;96766.81;4998154;28;20213;-72
2020/12/20 10:25:40;;;;;;;24.83;13.10;;;;;;;1.70;100.00;96762.00;4996384;28;20237;-72
2020/12/20 10:28:07;;;;;;;27.73;13.67;;;;;;;1.80;100.00;96756.97;4998394;28;20206;-71
2020/12/20 10:30:33;;;;;;;26.83;14.53;;;;;;;1.84;100.00;96756.63;4997730;28;21072;-72
2020/12/20 10:32:59;;;;;;;32.70;14.30;;;;;;;1.76;100.00;96756.34;4997391;28;20214;-71
2020/12/20 10:35:27;;;;;;;26.73;13.83;;;;;;;1.87;100.00;96757.25;4997029;28;20625;-71
2020/12/20 10:37:53;;;;;;;28.07;14.87;;;;;;;2.03;100.00;96755.16;4997871;28;20303;-72
2020/12/20 10:40:20;;;;;;;25.47;13.10;;;;;;;1.93;100.00;96759.38;4997304;28;20225;-72
2020/12/20 10:42:46;;;;;;;25.13;12.87;;;;;;;1.95;100.00;96756.69;4997903;28;20213;-72
2020/12/20 10:45:13;;;;;;;25.17;13.70;;;;;;;2.00;100.00;96755.38;4996644;28;20257;-72
2020/12/20 10:47:39;;;;;;;30.10;15.40;;;;;;;2.00;100.00;96750.19;4998201;28;21046;-72
2020/12/20 10:50:06;;;;;;;34.60;17.13;;;;;;;1.90;100.00;96745.78;4996955;28;20199;-72
2020/12/20 10:52:32;;;;;;;26.90;14.53;;;;;;;2.06;100.00;96743.69;4997939;28;20684;-72
2020/12/20 10:54:59;;;;;;;24.70;13.30;;;;;;;2.24;100.00;96745.78;4997635;28;20204;-72
2020/12/20 10:57:25;;;;;;;25.80;14.73;;;;;;;2.14;100.00;96738.75;4996790;28;20209;-72
2020/12/20 10:59:51;;;;;;;26.27;13.60;;;;;;;2.07;100.00;96743.59;4997644;28;20749;-71
2020/12/20 11:02:17;;;;;;;24.23;13.50;;;;;;;2.32;100.00;96745.19;4998304;28;20247;-71
2020/12/20 11:04:43;;;;;;;25.00;13.20;;;;;;;2.35;100.00;96739.78;4997218;28;20240;-71
2020/12/20 11:07:10;;;;;;;24.10;13.67;;;;;;;2.46;100.00;96733.63;4996257;28;20768;-72
2020/12/20 11:09:36;;;;;;;28.13;15.07;;;;;;;2.54;100.00;96735.66;4997557;28;20209;-72
2020/12/20 11:12:04;;;;;;;23.77;12.97;;;;;;;2.34;100.00;96733.72;4996430;28;20245;-72
2020/12/20 11:14:30;;;;;;;25.23;13.57;;;;;;;2.25;100.00;96729.22;4997503;28;20235;-72
2020/12/20 11:16:56;;;;;;;26.30;14.00;;;;;;;2.26;100.00;96730.06;4996423;28;20205;-73
2020/12/20 11:19:22;;;;;;;25.43;14.00;;;;;;;2.39;100.00;96725.59;4997119;28;20210;-72